Time;durP1;ratioP1;P1;durP2;ratioP2;P2;SDS_P1;SDS_P2;PMS_P1;PMS_P2;Temp;Humidity;BMP_temperature;BMP_pressure;BME280_temperature;BME280_humidity;BME280_pressure;Samples;Min_cycle;Max_cycle;Signal;HPM_P1;HPM_P2
2023/09/10 00:01:10;;;;;;;19.73;12.50;;;21.40;76.50;;;;;;4971037;28;21711;-71
2023/09/10 00:03:35;;;;;;;16.57;11.70;;;21.30;76.20;;;;;;4978731;28;20421;-72
2023/09/10 00:06:06;;;;;;;23.00;12.17;;;21.20;76.40;;;;;;4971123;28;21713;-72
2023/09/10 00:08:33;;;;;;;16.83;11.43;;;21.10;76.50;;;;;;4975815;28;20579;-71
2023/09/10 00:10:59;;;;;;;26.30;12.00;;;21.10;76.70;;;;;;4952972;28;20426;-70
2023/09/10 00:13:25;;;;;;;18.73;12.47;;;21.10;77.00;;;;;;4977478;28;20440;-72
2023/09/10 00:15:54;;;;;;;20.13;13.00;;;21.10;77.30;;;;;;4974231;28;20259;-74
2023/09/10 00:18:21;;;;;;;20.80;12.10;;;21.10;77.10;;;;;;4971704;28;20461;-72
2023/09/10 00:20:47;;;;;;;18.70;11.63;;;21.20;77.00;;;;;;4977946;28;20469;-71
2023/09/10 00:23:13;;;;;;;17.90;11.50;;;21.20;76.80;;;;;;4978141;28;20459;-73
2023/09/10 00:25:39;;;;;;;18.27;11.47;;;21.20;76.70;;;;;;4969980;28;20462;-72
2023/09/10 00:28:05;;;;;;;19.13;12.07;;;21.20;76.50;;;;;;4970660;28;20438;-72
2023/09/10 00:30:31;;;;;;;18.80;11.83;;;21.30;76.40;;;;;;4977461;28;20269;-74
2023/09/10 00:32:56;;;;;;;18.23;12.10;;;21.30;76.10;;;;;;4980055;28;20702;-71
2023/09/10 00:35:22;;;;;;;17.00;12.07;;;21.30;76.10;;;;;;4970314;28;20248;-73
2023/09/10 00:37:48;;;;;;;20.00;12.50;;;21.30;76.20;;;;;;4970796;28;20197;-72
2023/09/10 00:40:13;;;;;;;15.67;10.77;;;21.20;76.50;;;;;;4976919;28;20691;-72
2023/09/10 00:42:39;;;;;;;20.17;12.10;;;21.10;76.50;;;;;;4977360;28;20563;-73
2023/09/10 00:45:06;;;;;;;19.10;11.17;;;21.20;76.50;;;;;;4973398;28;20587;-72
2023/09/10 00:47:32;;;;;;;15.50;10.83;;;21.00;76.50;;;;;;4973788;28;20194;-73
2023/09/10 00:49:58;;;;;;;21.33;12.30;;;20.90;77.10;;;;;;4978942;28;21397;-73
2023/09/10 00:52:26;;;;;;;17.70;11.40;;;20.80;77.30;;;;;;4980221;28;20197;-72
2023/09/10 00:54:52;;;;;;;16.47;11.83;;;20.80;77.30;;;;;;4979016;28;20474;-72
2023/09/10 00:57:18;;;;;;;18.50;12.70;;;20.80;77.60;;;;;;4976009;28;20425;-72
2023/09/10 00:59:44;;;;;;;19.83;11.17;;;20.90;77.70;;;;;;4982945;28;20475;-73
2023/09/10 01:02:13;;;;;;;23.30;11.73;;;20.90;77.60;;;;;;4979169;28;20662;-71
2023/09/10 01:04:39;;;;;;;19.43;11.80;;;21.00;77.10;;;;;;4977000;28;20432;-72
2023/09/10 01:07:05;;;;;;;18.30;11.70;;;21.10;76.80;;;;;;4974119;28;20761;-72
2023/09/10 01:09:31;;;;;;;16.40;11.97;;;21.20;76.40;;;;;;4978417;28;20505;-73
2023/09/10 01:12:05;;;;;;;16.37;11.50;;;21.10;76.70;;;;;;4975447;28;20832;-72
2023/09/10 01:14:40;;;;;;;19.60;11.37;;;21.10;76.80;;;;;;4976979;28;20285;-71
2023/09/10 01:17:15;;;;;;;16.40;11.03;;;21.20;76.20;;;;;;4972889;28;20437;-71
2023/09/10 01:20:11;;;;;;;15.50;10.77;;;21.20;75.90;;;;;;4977967;28;20480;-73
2023/09/10 01:22:57;;;;;;;19.97;12.07;;;21.20;75.90;;;;;;4982030;28;20524;-71
2023/09/10 01:25:23;;;;;;;22.23;12.63;;;21.10;76.20;;;;;;4974936;28;20469;-71
2023/09/10 01:27:49;;;;;;;19.77;11.13;;;21.00;76.70;;;;;;4973999;28;21023;-72
2023/09/10 01:30:14;;;;;;;19.70;11.70;;;20.90;77.10;;;;;;4975190;28;20500;-71
2023/09/10 01:32:47;;;;;;;18.83;11.70;;;20.90;77.30;;;;;;4982803;28;20680;-72
2023/09/10 01:35:48;;;;;;;19.97;12.60;;;20.80;77.60;;;;;;4971689;28;20226;-72
2023/09/10 01:38:32;;;;;;;19.70;11.10;;;20.70;77.80;;;;;;4919289;29;20455;-70
2023/09/10 01:41:04;;;;;;;19.73;12.27;;;20.80;77.70;;;;;;4922443;29;20474;-71
2023/09/10 01:43:31;;;;;;;18.50;11.83;;;20.90;77.00;;;;;;4917398;29;20437;-72
2023/09/10 01:45:57;;;;;;;16.73;11.33;;;20.80;77.10;;;;;;4910127;29;20471;-71
2023/09/10 01:48:26;;;;;;;19.60;11.70;;;20.80;77.60;;;;;;4912235;29;21012;-71
2023/09/10 01:50:53;;;;;;;17.17;10.53;;;20.90;77.00;;;;;;4915827;29;20267;-72
2023/09/10 01:53:18;;;;;;;19.90;11.93;;;20.90;76.80;;;;;;4913455;29;20440;-73
2023/09/10 01:55:45;;;;;;;21.40;12.57;;;20.90;77.10;;;;;;4904414;29;20511;-71
2023/09/10 01:58:13;;;;;;;20.27;11.80;;;20.80;77.30;;;;;;4914490;29;20184;-73
2023/09/10 02:00:39;;;;;;;17.97;12.50;;;20.70;77.70;;;;;;4913493;29;20527;-72
2023/09/10 02:03:04;;;;;;;17.07;11.17;;;20.70;77.80;;;;;;4912910;29;20425;-73
2023/09/10 02:05:30;;;;;;;17.60;11.30;;;20.60;78.00;;;;;;4909490;29;20534;-73
2023/09/10 02:07:56;;;;;;;18.67;11.50;;;20.60;78.40;;;;;;4912846;29;20282;-72
2023/09/10 02:10:22;;;;;;;16.40;10.80;;;20.70;78.10;;;;;;4914760;29;20806;-72
2023/09/10 02:12:47;;;;;;;14.67;10.10;;;20.60;78.30;;;;;;4912511;29;20201;-71
2023/09/10 02:15:13;;;;;;;17.63;11.43;;;20.70;77.80;;;;;;4954023;28;20277;-71
2023/09/10 02:17:39;;;;;;;19.83;11.43;;;20.70;77.40;;;;;;4978920;28;20221;-71
2023/09/10 02:20:09;;;;;;;20.30;11.60;;;20.70;77.60;;;;;;4972400;28;20485;-71
2023/09/10 02:22:38;;;;;;;21.23;11.70;;;20.60;77.70;;;;;;4972588;28;20264;-72
2023/09/10 02:25:04;;;;;;;24.47;11.60;;;20.60;77.80;;;;;;4968860;28;20558;-73
2023/09/10 02:27:35;;;;;;;21.73;10.83;;;20.50;77.80;;;;;;4971404;28;20506;-73
2023/09/10 02:30:03;;;;;;;19.87;11.93;;;20.40;78.30;;;;;;4971868;28;20517;-73
2023/09/10 02:32:28;;;;;;;18.77;11.57;;;20.30;78.60;;;;;;4971669;28;20471;-73
2023/09/10 02:34:54;;;;;;;18.60;11.27;;;20.20;79.00;;;;;;4968993;28;20553;-73
2023/09/10 02:37:20;;;;;;;17.47;11.30;;;20.10;79.50;;;;;;4972292;28;21487;-72
2023/09/10 02:39:46;;;;;;;22.47;12.47;;;20.00;79.60;;;;;;4972368;28;20225;-72
2023/09/10 02:42:12;;;;;;;18.63;12.10;;;20.00;79.70;;;;;;4972106;28;20440;-72
2023/09/10 02:44:37;;;;;;;25.13;12.27;;;20.00;79.60;;;;;;4969037;28;20192;-71
2023/09/10 02:47:03;;;;;;;17.70;11.47;;;20.00;79.90;;;;;;4970903;28;20200;-71
2023/09/10 02:49:29;;;;;;;18.67;11.33;;;20.10;79.70;;;;;;4971744;28;20534;-74
2023/09/10 02:51:55;;;;;;;15.73;11.20;;;20.10;79.60;;;;;;4971703;28;20220;-73
2023/09/10 02:54:20;;;;;;;15.00;10.57;;;20.20;79.60;;;;;;4970658;28;20201;-74
2023/09/10 02:56:46;;;;;;;16.40;10.03;;;20.20;79.30;;;;;;4969523;28;20816;-72
2023/09/10 02:59:23;;;;;;;20.60;12.03;;;20.30;78.60;;;;;;4971973;28;20216;-72
2023/09/10 03:01:49;;;;;;;19.50;10.63;;;20.20;78.60;;;;;;4973510;28;20186;-74
2023/09/10 03:04:14;;;;;;;15.53;11.40;;;20.20;78.90;;;;;;4972186;28;20420;-71
2023/09/10 03:06:48;;;;;;;20.47;11.30;;;20.20;78.70;;;;;;4971047;28;20292;-73
2023/09/10 03:09:14;;;;;;;20.57;11.67;;;20.20;79.00;;;;;;4972205;28;20192;-74
2023/09/10 03:11:40;;;;;;;15.50;11.17;;;20.20;79.00;;;;;;4971795;28;20974;-72
2023/09/10 03:14:06;;;;;;;21.10;11.97;;;20.10;79.20;;;;;;4967108;28;20771;-74
2023/09/10 03:16:33;;;;;;;20.77;11.53;;;20.10;79.20;;;;;;4969980;28;20477;-74
2023/09/10 03:18:59;;;;;;;16.80;11.40;;;20.10;79.20;;;;;;4971818;28;20190;-72
2023/09/10 03:21:26;;;;;;;16.23;11.20;;;20.10;79.20;;;;;;4971147;28;20424;-73
2023/09/10 03:23:51;;;;;;;20.13;12.47;;;20.00;79.30;;;;;;4953864;28;20184;-73
2023/09/10 03:26:17;;;;;;;19.20;11.93;;;19.90;79.70;;;;;;4967742;28;20460;-73
2023/09/10 03:28:42;;;;;;;17.10;11.87;;;19.90;79.70;;;;;;4971836;28;20280;-72
2023/09/10 03:31:08;;;;;;;18.70;11.80;;;20.00;79.70;;;;;;4972254;28;20258;-72
2023/09/10 03:33:34;;;;;;;19.73;11.17;;;20.00;79.70;;;;;;4970775;28;20325;-72
2023/09/10 03:36:00;;;;;;;18.07;11.67;;;20.00;79.60;;;;;;4963868;28;21042;-73
2023/09/10 03:38:25;;;;;;;24.43;12.97;;;20.00;79.60;;;;;;4970891;28;20184;-74
2023/09/10 03:40:51;;;;;;;18.10;11.30;;;20.10;79.50;;;;;;4971139;28;20697;-73
2023/09/10 03:43:17;;;;;;;17.40;11.40;;;20.10;79.50;;;;;;4970605;28;20567;-73
2023/09/10 03:45:43;;;;;;;16.43;11.10;;;20.10;79.30;;;;;;4968511;28;20215;-73
2023/09/10 03:48:08;;;;;;;16.07;11.30;;;20.10;79.30;;;;;;4971858;28;20502;-73
2023/09/10 03:50:34;;;;;;;19.63;12.53;;;20.20;79.30;;;;;;4972061;28;21540;-74
2023/09/10 03:53:00;;;;;;;18.90;11.97;;;20.20;79.00;;;;;;4971924;28;20176;-74
2023/09/10 03:55:25;;;;;;;19.63;11.93;;;20.10;79.30;;;;;;4968636;28;20455;-72
2023/09/10 03:57:51;;;;;;;18.73;12.20;;;20.10;79.30;;;;;;4972358;28;20262;-73
2023/09/10 04:00:19;;;;;;;20.93;13.57;;;20.00;79.50;;;;;;4973238;28;20359;-72
2023/09/10 04:02:45;;;;;;;22.33;13.47;;;20.00;79.60;;;;;;4982308;28;20180;-73
2023/09/10 04:05:11;;;;;;;19.30;12.27;;;19.90;79.90;;;;;;4971653;28;20454;-72
2023/09/10 04:07:37;;;;;;;19.73;13.17;;;19.90;79.90;;;;;;4970989;28;20537;-73
2023/09/10 04:10:04;;;;;;;20.77;12.50;;;19.90;80.00;;;;;;4972892;28;20448;-72
2023/09/10 04:12:29;;;;;;;20.67;12.63;;;19.90;80.20;;;;;;4982452;28;20945;-73
2023/09/10 04:14:55;;;;;;;19.40;11.43;;;19.90;80.20;;;;;;4971059;28;20527;-74
2023/09/10 04:17:20;;;;;;;21.30;12.30;;;19.90;80.20;;;;;;4974789;28;20206;-73
2023/09/10 04:19:46;;;;;;;21.43;13.00;;;19.90;80.20;;;;;;4980897;28;20233;-73
2023/09/10 04:22:11;;;;;;;25.27;11.63;;;19.80;80.20;;;;;;4985423;28;20352;-75
2023/09/10 04:24:37;;;;;;;19.77;11.93;;;19.80;80.50;;;;;;4976600;28;20193;-72
2023/09/10 04:27:03;;;;;;;17.53;11.40;;;19.80;80.30;;;;;;4976115;28;20660;-71
2023/09/10 04:29:29;;;;;;;16.20;11.40;;;19.80;80.00;;;;;;4976151;28;20225;-71
2023/09/10 04:31:56;;;;;;;18.47;11.13;;;19.80;79.60;;;;;;4980541;28;20455;-74
2023/09/10 04:34:22;;;;;;;19.53;12.30;;;19.80;79.50;;;;;;4979471;28;20203;-72
2023/09/10 04:36:48;;;;;;;21.67;13.37;;;19.70;79.90;;;;;;4973152;28;20462;-73
2023/09/10 04:39:13;;;;;;;21.47;13.67;;;19.60;80.50;;;;;;4976556;28;20770;-72
2023/09/10 04:41:39;;;;;;;21.07;12.27;;;19.50;80.90;;;;;;4983331;28;20277;-73
2023/09/10 04:44:04;;;;;;;24.50;13.73;;;19.50;81.20;;;;;;4975323;28;20199;-75
2023/09/10 04:46:30;;;;;;;24.40;13.00;;;19.50;81.20;;;;;;4973572;28;20203;-71
2023/09/10 04:48:59;;;;;;;24.90;13.77;;;19.40;81.20;;;;;;4979715;28;20179;-73
2023/09/10 04:51:25;;;;;;;22.20;14.30;;;19.40;81.40;;;;;;4962664;28;20319;-72
2023/09/10 04:53:50;;;;;;;17.73;11.63;;;19.40;81.70;;;;;;4978396;28;20533;-72
2023/09/10 04:56:16;;;;;;;17.90;12.50;;;19.40;81.70;;;;;;4973449;28;20577;-71
2023/09/10 04:58:42;;;;;;;16.23;11.40;;;19.50;81.70;;;;;;4976628;28;20248;-73
2023/09/10 05:01:07;;;;;;;22.43;12.53;;;19.50;81.50;;;;;;4977871;28;20293;-71
2023/09/10 05:03:33;;;;;;;20.87;13.80;;;19.50;81.50;;;;;;4993657;28;20223;-73
2023/09/10 05:06:00;;;;;;;21.87;12.13;;;19.60;81.40;;;;;;4976648;28;20210;-72
2023/09/10 05:08:26;;;;;;;18.13;12.33;;;19.50;81.40;;;;;;4984151;28;20282;-72
2023/09/10 05:10:52;;;;;;;18.13;12.43;;;19.60;81.10;;;;;;4976098;28;20493;-72
2023/09/10 05:13:18;;;;;;;21.40;12.10;;;19.60;80.30;;;;;;4979756;28;20518;-72
2023/09/10 05:15:48;;;;;;;21.17;12.93;;;19.50;80.30;;;;;;4973718;28;20712;-73
2023/09/10 05:18:14;;;;;;;18.97;12.27;;;19.40;80.30;;;;;;4973612;28;20211;-73
2023/09/10 05:20:40;;;;;;;18.60;12.33;;;19.30;80.90;;;;;;4978622;28;20530;-73
2023/09/10 05:23:05;;;;;;;21.73;13.40;;;19.20;81.50;;;;;;4980063;28;20430;-71
2023/09/10 05:25:35;;;;;;;22.00;13.80;;;19.10;81.80;;;;;;4972519;28;20345;-71
2023/09/10 05:28:00;;;;;;;18.40;12.60;;;19.20;81.90;;;;;;4973521;28;20186;-72
2023/09/10 05:30:26;;;;;;;18.03;12.63;;;19.20;82.10;;;;;;4983307;28;20423;-72
2023/09/10 05:32:51;;;;;;;19.20;12.10;;;19.20;82.10;;;;;;4979509;28;20579;-72
2023/09/10 05:35:17;;;;;;;21.57;12.90;;;19.20;82.40;;;;;;4974795;28;20204;-73
2023/09/10 05:37:42;;;;;;;20.67;13.00;;;19.30;82.20;;;;;;4974629;28;20603;-72
2023/09/10 05:40:08;;;;;;;20.30;13.50;;;19.40;82.20;;;;;;4979552;28;20583;-71
2023/09/10 05:42:34;;;;;;;21.07;12.80;;;19.50;81.70;;;;;;4981755;28;20314;-72
2023/09/10 05:45:00;;;;;;;18.23;12.77;;;19.60;81.50;;;;;;4973903;28;20457;-71
2023/09/10 05:47:25;;;;;;;17.90;12.20;;;19.60;81.40;;;;;;4977199;28;20193;-72
2023/09/10 05:49:51;;;;;;;17.87;12.27;;;19.70;81.20;;;;;;4982597;28;20176;-72
2023/09/10 05:52:17;;;;;;;21.53;11.40;;;19.70;80.90;;;;;;4978548;28;20640;-72
2023/09/10 05:54:43;;;;;;;18.10;13.07;;;19.80;80.80;;;;;;4977723;28;20484;-73
2023/09/10 05:57:09;;;;;;;22.53;12.33;;;19.80;80.80;;;;;;4972656;28;20188;-72
2023/09/10 05:59:34;;;;;;;16.57;12.00;;;19.90;80.60;;;;;;4977997;28;20233;-71
2023/09/10 06:02:00;;;;;;;18.33;12.33;;;19.90;80.30;;;;;;4975193;28;20184;-72
2023/09/10 06:04:27;;;;;;;19.37;13.40;;;19.90;80.30;;;;;;4977767;28;20195;-72
2023/09/10 06:06:52;;;;;;;20.23;13.37;;;19.80;80.00;;;;;;4968383;28;20527;-74
2023/09/10 06:09:18;;;;;;;15.83;10.87;;;19.80;80.00;;;;;;4977523;28;20506;-74
2023/09/10 06:11:44;;;;;;;17.17;12.60;;;20.00;80.50;;;;;;4974381;28;20649;-69
2023/09/10 06:14:10;;;;;;;22.63;13.57;;;20.50;80.20;;;;;;4975777;28;20273;-72
2023/09/10 06:16:35;;;;;;;22.13;12.37;;;21.10;78.60;;;;;;4970754;28;20295;-72
2023/09/10 06:19:01;;;;;;;20.13;11.33;;;21.40;75.80;;;;;;4977624;28;20189;-70
2023/09/10 06:21:28;;;;;;;19.60;12.50;;;21.40;74.80;;;;;;4979106;28;20182;-72
2023/09/10 06:23:53;;;;;;;18.87;12.90;;;21.30;74.50;;;;;;4980584;28;20192;-73
2023/09/10 06:26:19;;;;;;;18.63;11.87;;;21.00;75.10;;;;;;4970954;28;20468;-72
2023/09/10 06:28:45;;;;;;;20.83;11.87;;;20.80;76.10;;;;;;4971558;28;20267;-74
2023/09/10 06:31:10;;;;;;;17.80;12.30;;;20.70;76.50;;;;;;4974829;28;20189;-73
2023/09/10 06:33:36;;;;;;;23.67;13.07;;;20.60;77.00;;;;;;4981884;28;20195;-76
2023/09/10 06:36:02;;;;;;;17.70;12.60;;;20.50;77.60;;;;;;4970159;28;20228;-73
2023/09/10 06:38:29;;;;;;;17.80;13.00;;;20.50;78.00;;;;;;4973909;28;20196;-72
2023/09/10 06:40:54;;;;;;;16.30;11.40;;;20.50;78.10;;;;;;4971465;28;20476;-72
2023/09/10 06:43:20;;;;;;;20.50;14.23;;;20.50;78.10;;;;;;4979040;28;20425;-73
2023/09/10 06:45:45;;;;;;;18.03;12.60;;;20.60;78.00;;;;;;4971564;28;20751;-73
2023/09/10 06:48:11;;;;;;;21.67;13.40;;;20.70;77.80;;;;;;4971887;28;20187;-74
2023/09/10 06:50:37;;;;;;;18.43;12.87;;;20.70;77.30;;;;;;4979752;28;20188;-74
2023/09/10 06:53:02;;;;;;;18.47;12.13;;;20.80;77.30;;;;;;4975721;28;20193;-73
2023/09/10 06:55:28;;;;;;;19.50;12.60;;;20.80;77.40;;;;;;4971206;28;20295;-73
2023/09/10 06:57:55;;;;;;;19.27;13.23;;;20.80;77.60;;;;;;4971880;28;20271;-72
2023/09/10 07:00:21;;;;;;;19.83;13.23;;;20.90;77.10;;;;;;4975414;28;20246;-73
2023/09/10 07:02:47;;;;;;;23.43;13.63;;;20.90;76.80;;;;;;4975774;28;20428;-72
2023/09/10 07:05:13;;;;;;;20.20;13.37;;;21.00;76.70;;;;;;4977901;28;20453;-73
2023/09/10 07:07:38;;;;;;;22.30;13.90;;;21.00;76.70;;;;;;4975116;28;20208;-73
2023/09/10 07:10:04;;;;;;;20.00;13.60;;;21.00;76.50;;;;;;4981593;28;20424;-74
2023/09/10 07:12:30;;;;;;;20.83;14.40;;;21.10;76.70;;;;;;4977267;28;20185;-72
2023/09/10 07:14:56;;;;;;;22.70;13.90;;;21.10;76.70;;;;;;4971715;28;20500;-75
2023/09/10 07:17:21;;;;;;;23.03;13.53;;;21.10;76.50;;;;;;4971480;28;20186;-73
2023/09/10 07:19:47;;;;;;;24.67;14.87;;;21.20;76.50;;;;;;4980599;28;20557;-71
2023/09/10 07:22:13;;;;;;;25.23;16.40;;;21.30;76.10;;;;;;4975611;28;20181;-72
2023/09/10 07:24:39;;;;;;;28.33;16.63;;;21.30;76.40;;;;;;4975966;28;20636;-72
2023/09/10 07:27:05;;;;;;;33.20;18.13;;;21.30;76.80;;;;;;4971899;28;20464;-71
2023/09/10 07:29:30;;;;;;;24.30;15.80;;;21.30;77.00;;;;;;4977428;28;20777;-73
2023/09/10 07:31:56;;;;;;;27.00;15.33;;;21.30;77.30;;;;;;4978240;28;20186;-74
2023/09/10 07:34:22;;;;;;;26.67;17.37;;;21.50;77.30;;;;;;4980364;28;20204;-73
2023/09/10 07:36:47;;;;;;;21.20;14.47;;;21.50;77.00;;;;;;4976266;28;20550;-73
2023/09/10 07:39:14;;;;;;;20.97;15.20;;;21.50;77.00;;;;;;4980217;28;20594;-73
2023/09/10 07:41:39;;;;;;;29.33;17.40;;;21.70;76.50;;;;;;4978937;28;20185;-73
2023/09/10 07:44:05;;;;;;;27.50;15.70;;;21.80;76.20;;;;;;4975495;28;20437;-73
2023/09/10 07:46:32;;;;;;;24.97;16.20;;;21.90;76.20;;;;;;4968473;28;20217;-73
2023/09/10 07:48:58;;;;;;;21.87;14.17;;;22.00;76.10;;;;;;4970554;28;20430;-73
2023/09/10 07:51:23;;;;;;;21.63;13.87;;;22.00;76.10;;;;;;4977279;28;20484;-75
2023/09/10 07:53:49;;;;;;;35.23;19.83;;;22.10;75.80;;;;;;4973904;28;20191;-74
2023/09/10 07:56:15;;;;;;;22.03;15.87;;;22.20;75.20;;;;;;4968555;28;20235;-73
2023/09/10 07:58:40;;;;;;;26.57;17.23;;;22.20;75.40;;;;;;4969513;28;20258;-74
2023/09/10 08:01:06;;;;;;;34.67;19.23;;;22.40;75.20;;;;;;4974835;28;20290;-74
2023/09/10 08:03:32;;;;;;;24.00;15.50;;;22.30;74.80;;;;;;4970571;28;20277;-73
2023/09/10 08:05:57;;;;;;;29.47;17.87;;;22.40;74.90;;;;;;4967589;28;20240;-74
2023/09/10 08:08:23;;;;;;;25.70;16.23;;;22.50;74.60;;;;;;4970141;28;20216;-75
2023/09/10 08:10:48;;;;;;;20.00;14.77;;;22.50;74.20;;;;;;4979645;28;20211;-75
2023/09/10 08:13:14;;;;;;;28.20;15.13;;;22.60;73.90;;;;;;4967520;28;20194;-73
2023/09/10 08:15:41;;;;;;;17.20;13.13;;;22.60;73.60;;;;;;4968817;28;20296;-74
2023/09/10 08:18:11;;;;;;;22.17;15.10;;;22.80;72.70;;;;;;4966500;28;20194;-74
2023/09/10 08:20:40;;;;;;;22.60;15.10;;;23.00;72.10;;;;;;4976787;28;20490;-74
2023/09/10 08:23:06;;;;;;;20.77;13.67;;;23.10;71.70;;;;;;4969819;28;20437;-73
2023/09/10 08:25:32;;;;;;;34.27;20.40;;;23.00;71.80;;;;;;4971693;28;20496;-73
2023/09/10 08:28:02;;;;;;;33.00;20.80;;;22.90;72.10;;;;;;4968507;28;20431;-73
2023/09/10 08:30:28;;;;;;;25.67;16.10;;;23.10;72.10;;;;;;4973254;28;20795;-72
2023/09/10 08:32:54;;;;;;;26.73;17.40;;;23.20;71.60;;;;;;4972473;28;20500;-74
2023/09/10 08:35:21;;;;;;;19.70;13.80;;;23.30;71.10;;;;;;4968534;28;20499;-72
2023/09/10 08:37:47;;;;;;;22.40;15.10;;;23.50;70.70;;;;;;4968511;28;20300;-75
2023/09/10 08:40:13;;;;;;;19.70;13.50;;;23.60;70.10;;;;;;4970086;28;20564;-73
2023/09/10 08:42:56;;;;;;;25.50;16.60;;;23.70;69.80;;;;;;4976777;28;20191;-71
2023/09/10 08:45:22;;;;;;;22.27;15.97;;;23.80;69.20;;;;;;4967749;28;20994;-72
2023/09/10 08:47:53;;;;;;;24.70;14.10;;;23.70;68.90;;;;;;4968751;28;20811;-73
2023/09/10 08:50:19;;;;;;;18.67;13.57;;;23.80;68.80;;;;;;4974991;28;20933;-75
2023/09/10 08:52:48;;;;;;;19.27;13.70;;;23.90;68.60;;;;;;4974471;28;20430;-72
2023/09/10 08:55:14;;;;;;;18.40;13.47;;;24.00;68.50;;;;;;4969815;28;20467;-73
2023/09/10 08:57:44;;;;;;;16.53;12.73;;;24.20;67.50;;;;;;4971831;28;20430;-74
2023/09/10 09:00:12;;;;;;;17.03;11.73;;;24.30;67.30;;;;;;4982497;28;20471;-74
2023/09/10 09:02:45;;;;;;;22.70;13.07;;;24.50;67.00;;;;;;4982556;28;20418;-73
2023/09/10 09:05:11;;;;;;;20.27;12.23;;;24.50;66.60;;;;;;4986668;28;20460;-73
2023/09/10 09:07:58;;;;;;;19.80;12.37;;;24.50;66.30;;;;;;4984733;28;20494;-74
2023/09/10 09:10:27;;;;;;;17.90;12.33;;;24.50;65.80;;;;;;4990529;28;20456;-71
2023/09/10 09:12:58;;;;;;;18.47;12.40;;;24.60;65.30;;;;;;4980669;28;20436;-73
2023/09/10 09:15:25;;;;;;;26.03;13.47;;;24.70;64.70;;;;;;4974231;28;21003;-72
2023/09/10 09:17:51;;;;;;;16.50;12.67;;;24.90;64.10;;;;;;4970558;28;20957;-73
2023/09/10 09:20:19;;;;;;;17.70;12.70;;;24.90;63.70;;;;;;4972951;28;20473;-72
2023/09/10 09:22:50;;;;;;;29.10;13.83;;;24.90;63.50;;;;;;4986527;28;20446;-78
2023/09/10 09:25:16;;;;;;;23.20;12.50;;;25.00;63.90;;;;;;4977722;28;20468;-77
2023/09/10 09:27:43;;;;;;;22.70;11.70;;;25.10;63.90;;;;;;4972556;28;20524;-77
2023/09/10 09:30:09;;;;;;;24.23;13.10;;;25.20;63.80;;;;;;4979687;28;20228;-75
2023/09/10 09:32:37;;;;;;;19.10;12.67;;;25.30;62.60;;;;;;4977435;28;20832;-73
2023/09/10 09:35:03;;;;;;;29.83;12.73;;;25.40;62.80;;;;;;4971211;28;20495;-76
2023/09/10 09:37:32;;;;;;;19.93;12.87;;;25.60;61.90;;;;;;4971932;28;20413;-78
2023/09/10 09:40:03;;;;;;;19.70;12.80;;;25.70;61.20;;;;;;4982579;28;20469;-78
2023/09/10 09:42:29;;;;;;;21.97;14.10;;;25.90;60.90;;;;;;4982877;28;20434;-74
2023/09/10 09:44:57;;;;;;;15.00;11.57;;;25.80;60.90;;;;;;4977611;28;20541;-76
2023/09/10 09:47:23;;;;;;;19.43;10.50;;;25.90;61.00;;;;;;4978211;28;20185;-78
2023/09/10 09:49:56;;;;;;;15.93;10.90;;;26.00;60.00;;;;;;4985493;28;20422;-74
2023/09/10 09:52:21;;;;;;;18.13;10.97;;;26.10;60.30;;;;;;4981187;28;20485;-73
2023/09/10 09:54:48;;;;;;;16.60;12.23;;;26.20;60.90;;;;;;4984086;28;20813;-71
2023/09/10 09:57:13;;;;;;;18.47;11.73;;;26.40;61.20;;;;;;4977032;28;20194;-76
2023/09/10 09:59:39;;;;;;;11.73;10.30;;;26.20;61.20;;;;;;4977590;28;20483;-74
2023/09/10 10:02:10;;;;;;;16.80;10.80;;;26.30;61.30;;;;;;4977935;28;20437;-72
2023/09/10 10:04:39;;;;;;;14.73;10.93;;;26.50;60.90;;;;;;4979998;28;20260;-72
2023/09/10 10:07:04;;;;;;;15.90;10.60;;;26.50;60.10;;;;;;4971241;28;20432;-73
2023/09/10 10:09:40;;;;;;;20.33;11.77;;;26.50;60.40;;;;;;4972918;28;20427;-73
2023/09/10 10:12:07;;;;;;;18.17;12.23;;;26.60;60.60;;;;;;4976173;28;20271;-72
2023/09/10 10:14:34;;;;;;;21.27;11.60;;;26.50;60.70;;;;;;4966202;28;21309;-73
2023/09/10 10:17:01;;;;;;;23.07;12.97;;;26.50;60.90;;;;;;4968468;28;20457;-75
2023/09/10 10:19:31;;;;;;;29.03;18.90;;;26.60;60.60;;;;;;4972503;28;20476;-75
2023/09/10 10:21:58;;;;;;;18.00;12.33;;;26.70;60.40;;;;;;4981599;28;20430;-73
2023/09/10 10:24:25;;;;;;;21.83;11.40;;;26.70;60.40;;;;;;4979605;28;20433;-77
2023/09/10 10:27:02;;;;;;;16.70;10.97;;;26.80;60.30;;;;;;4971372;28;20445;-75
2023/09/10 10:29:28;;;;;;;21.23;13.00;;;26.90;60.10;;;;;;4980202;28;20439;-75
2023/09/10 10:32:21;;;;;;;33.73;23.00;;;27.00;59.90;;;;;;4976632;28;20448;-74
2023/09/10 10:35:05;;;;;;;20.33;15.67;;;27.00;60.10;;;;;;4963120;28;20500;-73
2023/09/10 10:38:01;;;;;;;17.93;11.63;;;27.10;59.90;;;;;;4969455;28;20426;-74
2023/09/10 10:40:39;;;;;;;15.27;10.77;;;27.20;59.60;;;;;;4973939;28;20506;-72
2023/09/10 10:43:12;;;;;;;20.10;11.57;;;27.50;58.90;;;;;;4980208;28;20457;-73
2023/09/10 10:45:38;;;;;;;13.00;9.70;;;27.90;58.70;;;;;;4972188;28;20492;-73
2023/09/10 10:48:12;;;;;;;15.63;9.77;;;28.30;57.80;;;;;;4978833;28;20432;-73
2023/09/10 10:50:38;;;;;;;15.60;10.73;;;28.80;56.90;;;;;;4974740;28;20422;-72
2023/09/10 10:53:09;;;;;;;17.57;11.00;;;29.30;55.80;;;;;;4978933;28;20459;-71
2023/09/10 10:55:35;;;;;;;15.17;10.30;;;29.80;55.40;;;;;;4972585;28;20533;-71
2023/09/10 10:58:01;;;;;;;17.83;9.83;;;30.10;54.10;;;;;;4973167;28;20431;-71
2023/09/10 11:00:28;;;;;;;20.50;10.80;;;30.40;53.70;;;;;;4975851;28;20493;-72
2023/09/10 11:03:16;;;;;;;15.43;9.67;;;29.90;54.20;;;;;;4983880;28;20425;-73
2023/09/10 11:06:06;;;;;;;15.50;10.70;;;30.00;54.20;;;;;;4973169;28;20479;-73
2023/09/10 11:08:37;;;;;;;12.70;10.20;;;30.60;52.90;;;;;;4977150;28;20477;-73
2023/09/10 11:11:09;;;;;;;17.60;10.60;;;30.90;52.40;;;;;;4980240;28;20433;-72
2023/09/10 11:14:00;;;;;;;15.40;10.07;;;30.40;52.40;;;;;;4975151;28;20440;-72
2023/09/10 11:16:28;;;;;;;13.30;9.50;;;30.10;53.30;;;;;;4972558;28;20485;-72
2023/09/10 11:18:54;;;;;;;17.13;11.60;;;30.60;52.50;;;;;;4971780;28;21259;-72
2023/09/10 11:21:20;;;;;;;18.57;10.37;;;30.80;52.00;;;;;;4980665;28;20494;-73
2023/09/10 11:23:54;;;;;;;14.33;9.70;;;30.60;52.10;;;;;;4977687;28;20552;-73
2023/09/10 11:26:20;;;;;;;15.40;11.90;;;30.60;52.60;;;;;;4970855;28;20679;-72
2023/09/10 11:29:04;;;;;;;17.63;10.07;;;30.60;52.20;;;;;;4971185;28;20419;-71
2023/09/10 11:31:39;;;;;;;13.97;9.77;;;30.50;52.80;;;;;;4959541;28;20187;-72
2023/09/10 11:34:22;;;;;;;13.47;9.40;;;30.50;52.60;;;;;;4973893;28;20532;-73
2023/09/10 11:36:49;;;;;;;12.70;9.10;;;30.40;52.80;;;;;;4969759;28;20463;-72
2023/09/10 11:39:16;;;;;;;16.30;10.20;;;31.00;52.20;;;;;;4973892;28;20498;-72
2023/09/10 11:41:47;;;;;;;15.73;10.30;;;31.40;50.50;;;;;;4974405;28;20419;-73
2023/09/10 11:44:13;;;;;;;13.07;10.10;;;31.20;51.20;;;;;;4976961;28;20915;-72
2023/09/10 11:46:39;;;;;;;12.27;10.00;;;30.90;51.40;;;;;;4972891;28;20459;-71
2023/09/10 11:49:05;;;;;;;14.80;9.33;;;30.90;52.40;;;;;;4983710;28;20199;-72
2023/09/10 11:51:31;;;;;;;14.83;10.23;;;31.30;51.70;;;;;;4987583;28;20740;-73
2023/09/10 11:53:59;;;;;;;17.80;9.73;;;31.50;50.70;;;;;;4980361;28;21001;-72
2023/09/10 11:56:26;;;;;;;16.33;9.60;;;31.80;50.70;;;;;;4971546;28;20986;-73
2023/09/10 11:58:53;;;;;;;15.90;10.00;;;31.50;50.30;;;;;;4974839;28;20504;-72
2023/09/10 12:01:20;;;;;;;16.83;11.57;;;30.80;52.00;;;;;;4973647;28;20488;-72
2023/09/10 12:03:45;;;;;;;13.77;10.17;;;30.50;52.60;;;;;;4977263;28;20673;-73
2023/09/10 12:06:12;;;;;;;16.80;11.30;;;30.70;53.20;;;;;;4969593;28;21124;-73
2023/09/10 12:08:37;;;;;;;21.47;11.90;;;30.90;52.90;;;;;;4973878;28;20187;-71
2023/09/10 12:11:06;;;;;;;18.63;10.17;;;30.30;53.80;;;;;;4976450;28;20434;-72
2023/09/10 12:13:35;;;;;;;14.60;10.43;;;30.20;54.50;;;;;;4978107;28;20687;-71
2023/09/10 12:16:02;;;;;;;14.53;10.33;;;30.60;53.80;;;;;;4968675;28;20549;-72
2023/09/10 12:18:28;;;;;;;17.13;11.40;;;30.60;53.30;;;;;;4972532;28;20470;-73
2023/09/10 12:20:57;;;;;;;12.33;10.10;;;30.50;53.30;;;;;;4974994;28;21063;-73
2023/09/10 12:23:23;;;;;;;20.33;11.30;;;30.20;53.80;;;;;;4973990;28;20430;-72
2023/09/10 12:25:58;;;;;;;13.77;10.47;;;30.20;53.60;;;;;;4970812;28;20656;-73
2023/09/10 12:28:25;;;;;;;15.80;9.83;;;30.30;53.70;;;;;;4969698;28;20638;-72
2023/09/10 12:30:51;;;;;;;15.30;10.00;;;30.50;53.60;;;;;;4978143;28;20483;-72